Time;durP1;ratioP1;P1;durP2;ratioP2;P2;SDS_P1;SDS_P2;PMS_P1;PMS_P2;Temp;Humidity;BMP_temperature;BMP_pressure;BME280_temperature;BME280_humidity;BME280_pressure;Samples;Min_cycle;Max_cycle;Signal;HPM_P1;HPM_P2
2021/04/14 00:01:15;;;;;;;17.30;13.43;;;;;;;5.97;67.11;96502.13;1759236;80;21167;-53
2021/04/14 00:03:46;;;;;;;16.70;11.90;;;;;;;5.92;67.33;96505.38;1660903;84;21596;-54
2021/04/14 00:06:15;;;;;;;15.23;10.95;;;;;;;5.89;67.45;96503.78;1668997;84;21203;-53
2021/04/14 00:08:45;;;;;;;16.62;11.83;;;;;;;5.90;67.59;96510.61;1668760;84;21167;-52
2021/04/14 00:11:18;;;;;;;15.38;11.12;;;;;;;5.94;67.65;96512.99;1662837;84;21640;-52
2021/04/14 00:13:48;;;;;;;15.40;10.90;;;;;;;5.97;67.80;96509.00;1663246;84;21098;-52
2021/04/14 00:16:23;;;;;;;14.87;10.68;;;;;;;6.01;67.64;96510.05;1659104;84;21445;-52
2021/04/14 00:18:53;;;;;;;15.78;10.55;;;;;;;6.04;67.41;96506.03;1648034;85;21123;-52
2021/04/14 00:21:23;;;;;;;13.78;10.15;;;;;;;6.04;67.27;96499.59;1677071;81;21059;-53
2021/04/14 00:23:52;;;;;;;13.20;9.88;;;;;;;6.06;67.19;96505.48;1753931;80;21054;-53
2021/04/14 00:26:22;;;;;;;11.50;9.33;;;;;;;6.04;67.32;96500.88;1758064;80;21099;-52
2021/04/14 00:28:52;;;;;;;12.68;9.35;;;;;;;6.06;67.33;96495.17;1728169;81;23550;-54
2021/04/14 00:31:35;;;;;;;13.55;8.85;;;;;;;6.08;67.29;96493.38;1753448;80;21158;-52
2021/04/14 00:38:14;;;;;;;12.13;8.30;;;;;;;6.13;66.96;96482.80;1758609;80;21139;-53
2021/04/14 00:40:45;;;;;;;12.30;8.60;;;;;;;6.15;67.17;96479.70;1755601;81;21110;-53
2021/04/14 00:43:19;;;;;;;10.55;8.30;;;;;;;6.19;67.12;96476.02;1757990;81;21368;-52
2021/04/14 00:45:47;;;;;;;10.60;8.00;;;;;;;6.18;66.94;96473.53;1748631;80;21157;-52
2021/04/14 00:48:16;;;;;;;10.68;7.87;;;;;;;6.15;67.06;96477.56;1760332;80;21111;-52
2021/04/14 00:50:46;;;;;;;11.65;7.90;;;;;;;6.14;66.98;96474.16;1757380;80;21115;-52
2021/04/14 00:53:13;;;;;;;9.45;7.78;;;;;;;6.13;66.92;96470.38;1744325;80;21182;-52
2021/04/14 00:55:42;;;;;;;8.75;7.08;;;;;;;6.10;66.97;96466.67;1753096;80;21368;-53
2021/04/14 00:58:10;;;;;;;7.22;5.97;;;;;;;6.06;67.00;96468.59;1747639;80;21175;-52
2021/04/14 01:00:43;;;;;;;8.35;6.55;;;;;;;5.99;67.13;96460.38;1749672;80;21053;-53
2021/04/14 01:03:22;;;;;;;9.70;7.03;;;;;;;6.02;67.29;96457.63;1755479;80;21184;-52
2021/04/14 01:05:52;;;;;;;9.35;6.92;;;;;;;6.02;67.20;96458.07;1754423;80;21069;-52
2021/04/14 01:08:21;;;;;;;8.90;6.95;;;;;;;6.00;67.39;96453.47;1760750;80;21202;-52
2021/04/14 01:10:49;;;;;;;9.98;7.08;;;;;;;5.99;67.43;96446.20;1754662;80;21044;-53
2021/04/14 01:13:17;;;;;;;9.13;7.45;;;;;;;6.00;67.37;96443.16;1748758;80;21107;-53
2021/04/14 01:15:47;;;;;;;8.45;7.12;;;;;;;5.99;67.43;96442.81;1745551;80;21140;-53
2021/04/14 01:18:20;;;;;;;9.45;7.40;;;;;;;6.00;67.41;96437.58;1756535;80;21099;-52
2021/04/14 01:20:50;;;;;;;9.43;7.17;;;;;;;5.97;67.47;96437.74;1724013;81;21375;-53
2021/04/14 01:23:19;;;;;;;7.67;6.42;;;;;;;5.93;67.54;96431.05;1752751;80;21088;-53
2021/04/14 01:25:47;;;;;;;9.05;6.65;;;;;;;5.92;67.45;96432.42;1743470;80;21091;-52
2021/04/14 01:28:20;;;;;;;7.28;6.22;;;;;;;5.92;67.60;96428.56;1751178;80;21152;-52
2021/04/14 01:30:51;;;;;;;8.03;6.10;;;;;;;5.95;67.61;96429.22;1748381;80;21154;-52
2021/04/14 01:33:21;;;;;;;8.73;6.28;;;;;;;5.97;67.44;96424.02;1743791;81;21390;-52
2021/04/14 01:35:51;;;;;;;7.80;6.20;;;;;;;5.97;67.38;96417.14;1718020;80;21071;-54
2021/04/14 01:38:20;;;;;;;8.73;6.80;;;;;;;5.97;67.38;96415.84;1753957;80;21194;-53
2021/04/14 01:40:49;;;;;;;8.48;6.78;;;;;;;5.96;67.15;96415.47;1754690;80;21663;-53
2021/04/14 01:43:17;;;;;;;15.40;10.98;;;;;;;5.95;67.24;96410.37;1746169;80;21111;-54
2021/04/14 01:45:46;;;;;;;19.95;13.53;;;;;;;5.93;67.11;96409.16;1743379;80;21394;-53
2021/04/14 01:48:15;;;;;;;;;;;;;;;5.89;67.12;96404.64;1732715;80;21123;-53
2021/04/14 01:50:43;;;;;;;17.52;12.20;;;;;;;5.88;67.14;96400.39;1718818;81;20232;-52
2021/04/14 01:53:16;;;;;;;15.80;9.30;;;;;;;5.85;67.23;96397.98;1713726;82;21152;-53
2021/04/14 01:55:44;;;;;;;14.47;8.33;;;;;;;5.84;67.35;96396.34;1720435;81;21167;-53
2021/04/14 01:58:13;;;;;;;13.53;7.63;;;;;;;5.88;67.41;96390.56;1693068;83;21396;-53
2021/04/14 02:00:58;;;;;;;14.15;8.30;;;;;;;5.92;67.43;96388.64;1684262;84;21093;-53
2021/04/14 02:03:29;;;;;;;12.28;7.62;;;;;;;5.96;67.31;96391.00;1708499;83;21582;-53
2021/04/14 02:05:59;;;;;;;10.53;7.37;;;;;;;5.97;67.16;96386.23;1741737;80;21564;-52
2021/04/14 02:08:26;;;;;;;10.10;7.53;;;;;;;5.96;67.14;96381.98;1740466;80;21115;-52
2021/04/14 02:10:55;;;;;;;13.22;7.92;;;;;;;5.96;67.25;96387.57;1747798;80;21336;-53
2021/04/14 02:13:28;;;;;;;15.88;9.63;;;;;;;5.93;66.95;96382.13;1744646;80;21135;-53
2021/04/14 02:15:57;;;;;;;12.60;8.63;;;;;;;5.89;67.22;96383.22;1738764;80;21104;-54
2021/04/14 02:18:25;;;;;;;10.75;7.53;;;;;;;5.88;67.17;96384.94;1751281;80;21143;-53
2021/04/14 02:20:53;;;;;;;11.85;7.47;;;;;;;5.88;67.13;96384.12;1744923;80;21140;-53
2021/04/14 02:23:29;;;;;;;12.53;7.62;;;;;;;5.90;67.23;96386.15;1742780;81;21215;-53
2021/04/14 02:26:19;;;;;;;12.10;6.67;;;;;;;5.94;67.17;96382.94;1754193;79;21190;-53
2021/04/14 02:28:47;;;;;;;11.40;6.87;;;;;;;5.97;67.20;96384.09;1763505;79;21151;-54
2021/04/14 02:31:19;;;;;;;11.48;7.65;;;;;;;6.00;67.16;96375.77;1769988;79;21121;-53
2021/04/14 02:33:47;;;;;;;10.78;6.70;;;;;;;6.03;67.13;96376.03;1769609;79;21134;-52
2021/04/14 02:36:14;;;;;;;9.85;6.67;;;;;;;6.06;67.14;96374.11;1774421;79;21385;-52
2021/04/14 02:38:45;;;;;;;8.18;7.05;;;;;;;6.08;66.92;96374.03;1746080;80;21140;-52
2021/04/14 02:41:12;;;;;;;9.93;6.78;;;;;;;6.07;66.89;96373.20;1765448;79;21406;-53
2021/04/14 02:43:40;;;;;;;8.70;6.58;;;;;;;6.07;66.82;96378.36;1765580;79;21081;-53
2021/04/14 02:46:10;;;;;;;7.62;6.28;;;;;;;6.06;66.82;96370.25;1767949;79;21060;-53
2021/04/14 02:48:38;;;;;;;8.40;6.70;;;;;;;6.04;66.86;96376.42;1770449;79;21541;-53
2021/04/14 02:51:07;;;;;;;9.50;6.62;;;;;;;6.03;66.75;96377.33;1768468;79;21175;-53
2021/04/14 02:53:35;;;;;;;8.03;6.55;;;;;;;5.99;66.85;96378.42;1769436;79;21583;-53
2021/04/14 02:56:03;;;;;;;8.43;6.60;;;;;;;5.96;67.16;96372.97;1772593;79;21148;-53
2021/04/14 02:58:33;;;;;;;9.48;6.58;;;;;;;5.94;67.33;96379.08;1767300;79;21215;-53
2021/04/14 03:01:03;;;;;;;7.83;6.30;;;;;;;5.95;67.43;96383.33;1745536;80;21091;-53
2021/04/14 03:04:22;;;;;;;8.98;6.50;;;;;;;5.97;67.41;96373.79;1770030;79;21092;-53
2021/04/14 03:06:50;;;;;;;7.03;5.70;;;;;;;5.98;67.16;96369.03;1769533;79;21072;-53
2021/04/14 03:09:18;;;;;;;7.58;6.00;;;;;;;5.93;66.86;96369.24;1767671;80;21516;-53
2021/04/14 03:11:47;;;;;;;7.60;6.12;;;;;;;5.88;67.10;96364.81;1772539;81;21135;-52
2021/04/14 03:14:15;;;;;;;6.65;5.70;;;;;;;5.88;67.17;96361.77;1778520;80;21429;-53
2021/04/14 03:16:43;;;;;;;8.48;5.65;;;;;;;5.91;67.03;96363.36;1785805;80;21135;-54
2021/04/14 03:19:13;;;;;;;7.12;5.90;;;;;;;5.90;66.99;96357.82;1753907;79;21651;-52
2021/04/14 03:21:42;;;;;;;29.27;20.90;;;;;;;5.90;66.93;96359.11;1770255;81;21508;-52
2021/04/14 03:24:10;;;;;;;1449.18;755.35;;;;;;;5.93;67.20;96357.66;1758897;80;21199;-54
2021/04/14 03:26:38;;;;;;;68.95;47.93;;;;;;;5.98;67.34;96354.86;1769947;80;21450;-53
2021/04/14 03:29:06;;;;;;;25.70;18.32;;;;;;;6.06;67.06;96351.40;1759122;80;21159;-52
2021/04/14 03:31:35;;;;;;;11.83;9.50;;;;;;;6.11;66.80;96346.81;1769998;81;21124;-52
2021/04/14 03:34:02;;;;;;;7.95;6.28;;;;;;;6.12;66.51;96346.34;1775952;80;21095;-52
2021/04/14 03:36:30;;;;;;;6.53;5.15;;;;;;;6.07;66.18;96346.16;1770970;81;21445;-52
2021/04/14 03:38:58;;;;;;;5.25;4.62;;;;;;;6.03;66.28;96343.84;1768416;80;21325;-51
2021/04/14 03:41:30;;;;;;;131.90;79.70;;;;;;;6.00;66.36;96337.13;1744187;80;21607;-52
2021/04/14 03:43:58;;;;;;;27.85;15.85;;;;;;;6.00;66.85;96337.57;1695448;81;21119;-52
2021/04/14 03:46:26;;;;;;;8.48;6.03;;;;;;;6.04;66.56;96338.60;1772490;80;21591;-52
2021/04/14 03:48:54;;;;;;;6.05;5.28;;;;;;;6.05;66.35;96341.56;1769469;80;21160;-52
2021/04/14 03:51:25;;;;;;;9.28;5.83;;;;;;;6.04;66.49;96334.73;1771838;81;21356;-52
2021/04/14 03:53:54;;;;;;;6.58;5.17;;;;;;;6.06;66.67;96338.52;1771560;80;21154;-53
2021/04/14 03:56:40;;;;;;;7.80;6.55;;;;;;;6.06;66.59;96332.90;1751936;81;21088;-52
2021/04/14 03:59:10;;;;;;;7.10;5.87;;;;;;;6.03;66.60;96333.07;1775835;80;21739;-53
2021/04/14 04:01:37;;;;;;;11.15;7.47;;;;;;;6.01;66.71;96334.91;1767793;80;21084;-54
2021/04/14 04:04:05;;;;;;;9.00;6.85;;;;;;;6.00;66.75;96340.14;1756971;81;22049;-53
2021/04/14 04:06:33;;;;;;;9.50;7.25;;;;;;;5.98;66.75;96347.13;1759403;79;21179;-54
2021/04/14 04:09:04;;;;;;;14.83;8.03;;;;;;;5.99;66.87;96340.61;1775689;80;21178;-54
2021/04/14 04:11:32;;;;;;;8.60;7.17;;;;;;;5.96;66.70;96339.93;1771233;81;21063;-54
2021/04/14 04:14:00;;;;;;;13.00;9.48;;;;;;;5.85;66.44;96338.76;1774888;79;21063;-53
2021/04/14 04:16:29;;;;;;;13.15;8.85;;;;;;;5.70;66.97;96346.88;1745407;81;21084;-53
2021/04/14 04:18:59;;;;;;;14.23;9.18;;;;;;;5.62;67.29;96335.34;1757777;79;21508;-53
2021/04/14 04:21:27;;;;;;;13.22;8.80;;;;;;;5.58;67.56;96348.03;1757592;80;21088;-53
2021/04/14 04:23:56;;;;;;;11.65;7.90;;;;;;;5.51;67.69;96346.25;1769400;81;21557;-53
2021/04/14 04:26:24;;;;;;;12.40;7.78;;;;;;;5.45;67.88;96343.53;1763459;81;21103;-53
2021/04/14 04:28:52;;;;;;;9.95;6.95;;;;;;;5.45;68.15;96340.95;1769256;81;21391;-52
2021/04/14 04:31:20;;;;;;;10.50;6.20;;;;;;;5.46;68.10;96349.50;1753620;81;21101;-53
2021/04/14 04:33:47;;;;;;;10.15;6.80;;;;;;;5.45;68.13;96342.71;1759064;79;21149;-53
2021/04/14 04:36:16;;;;;;;9.45;6.87;;;;;;;5.47;68.15;96346.02;1789510;80;21140;-53
2021/04/14 04:38:44;;;;;;;11.83;6.80;;;;;;;5.51;68.14;96345.78;1772120;80;21143;-52
2021/04/14 04:41:13;;;;;;;9.93;6.62;;;;;;;5.55;68.10;96350.30;1771623;81;21423;-53
2021/04/14 04:43:43;;;;;;;7.80;5.78;;;;;;;5.60;67.78;96352.63;1772389;81;21080;-53
2021/04/14 04:46:11;;;;;;;6.83;5.00;;;;;;;5.61;67.72;96351.69;1777891;79;21063;-53
2021/04/14 04:48:38;;;;;;;14.65;10.82;;;;;;;5.63;67.55;96353.28;1767745;81;21056;-53
2021/04/14 04:51:07;;;;;;;7.35;5.15;;;;;;;5.63;67.16;96353.75;1773219;80;21565;-53
2021/04/14 04:53:35;;;;;;;8.13;5.20;;;;;;;5.61;66.72;96351.69;1792352;80;21362;-53
2021/04/14 04:56:06;;;;;;;6.78;5.17;;;;;;;5.49;66.84;96358.34;1768426;81;21132;-53
2021/04/14 04:58:34;;;;;;;6.35;4.42;;;;;;;5.39;66.79;96355.90;1772418;80;21115;-53
2021/04/14 05:01:03;;;;;;;6.28;4.03;;;;;;;5.32;67.06;96358.79;1758947;81;21074;-54
2021/04/14 05:03:32;;;;;;;6.72;3.90;;;;;;;5.22;66.89;96353.77;1743285;81;21515;-60
2021/04/14 05:06:00;;;;;;;7.10;3.47;;;;;;;5.12;67.37;96356.45;1774714;80;21262;-53
2021/04/14 05:08:28;;;;;;;6.12;4.12;;;;;;;5.12;67.56;96355.17;1754140;81;21140;-53
2021/04/14 05:10:57;;;;;;;4.62;3.62;;;;;;;5.17;67.39;96357.04;1765480;81;21144;-54
2021/04/14 05:13:25;;;;;;;5.12;3.52;;;;;;;5.16;67.23;96359.22;1766883;81;21107;-54
2021/04/14 05:15:54;;;;;;;;;;;;;;;5.08;67.44;96354.94;1769677;81;21116;-53
2021/04/14 05:18:21;;;;;;;4.95;3.75;;;;;;;5.05;67.48;96356.38;1759252;81;22948;-53
2021/04/14 05:20:52;;;;;;;6.10;3.70;;;;;;;4.95;67.55;96359.45;1735643;82;21113;-53
2021/04/14 05:23:21;;;;;;;4.95;3.75;;;;;;;4.92;68.00;96359.60;1751387;81;21184;-53
2021/04/14 05:25:48;;;;;;;5.70;4.17;;;;;;;4.95;67.92;96359.45;1767287;80;21072;-53
2021/04/14 05:28:19;;;;;;;5.10;4.45;;;;;;;4.99;68.12;96361.41;1770218;81;21153;-52
2021/04/14 05:30:47;;;;;;;5.00;4.50;;;;;;;4.99;67.77;96352.41;1772518;81;21205;-53
2021/04/14 05:33:18;;;;;;;4.78;3.92;;;;;;;4.91;67.96;96357.93;1764614;80;21163;-53
2021/04/14 05:35:47;;;;;;;5.40;4.28;;;;;;;4.87;68.09;96354.30;1749841;81;21140;-53
2021/04/14 05:38:15;;;;;;;7.08;4.00;;;;;;;4.89;68.26;96357.19;1770389;79;21168;-53
2021/04/14 05:40:42;;;;;;;5.17;4.20;;;;;;;4.89;68.52;96358.94;1772388;81;21504;-52
2021/04/14 05:43:20;;;;;;;5.08;3.98;;;;;;;4.95;68.74;96354.74;1773798;80;21413;-53
2021/04/14 05:45:59;;;;;;;3.83;3.40;;;;;;;5.06;68.79;96356.77;1760008;80;21526;-54
2021/04/14 05:48:28;;;;;;;4.25;3.58;;;;;;;5.18;68.55;96356.58;1739013;81;21156;-54
2021/04/14 05:50:59;;;;;;;4.22;3.60;;;;;;;5.26;68.28;96356.56;1762684;81;21079;-53
2021/04/14 05:53:26;;;;;;;3.33;3.02;;;;;;;5.36;67.91;96355.59;1764110;80;21159;-53
2021/04/14 05:55:54;;;;;;;;;;;;;;;5.42;67.65;96359.59;1780731;80;21325;-52
2021/04/14 05:58:23;;;;;;;3.15;2.33;;;;;;;5.43;67.18;96359.52;1793998;80;20222;-53
2021/04/14 06:00:51;;;;;;;2.27;1.87;;;;;;;5.37;67.41;96363.70;1794297;80;21077;-53
2021/04/14 06:03:19;;;;;;;2.67;1.37;;;;;;;5.41;67.33;96361.78;1775678;80;21508;-53
2021/04/14 06:05:47;;;;;;;1.80;1.50;;;;;;;5.43;67.05;96361.27;1752431;81;21128;-53
2021/04/14 06:08:14;;;;;;;1.77;1.60;;;;;;;5.47;67.07;96363.57;1759207;80;21214;-55
2021/04/14 06:10:42;;;;;;;1.50;1.40;;;;;;;5.54;67.06;96365.35;1758958;80;21092;-53
2021/04/14 06:13:10;;;;;;;1.70;1.60;;;;;;;5.57;66.81;96370.34;1767557;81;21070;-54
2021/04/14 06:15:38;;;;;;;1.60;1.50;;;;;;;5.59;66.51;96371.55;1746686;81;21084;-53
2021/04/14 06:18:06;;;;;;;3.33;2.83;;;;;;;5.57;66.46;96371.63;1771902;80;21148;-54
2021/04/14 06:20:35;;;;;;;1.57;1.47;;;;;;;5.56;66.46;96372.56;1767540;81;22356;-53
2021/04/14 06:23:07;;;;;;;1.75;1.40;;;;;;;5.56;66.02;96370.42;1762686;80;21567;-53
2021/04/14 06:25:40;;;;;;;1.67;1.57;;;;;;;5.49;66.00;96371.21;1766677;81;21172;-53
2021/04/14 06:28:06;;;;;;;1.82;1.60;;;;;;;5.43;66.10;96373.67;1687705;82;21266;-52
2021/04/14 06:30:39;;;;;;;1.85;1.70;;;;;;;5.42;66.36;96376.33;1690139;82;21175;-53
2021/04/14 06:33:10;;;;;;;1.70;1.60;;;;;;;5.37;66.49;96372.70;1738620;81;21228;-55
2021/04/14 06:35:39;;;;;;;1.42;1.32;;;;;;;5.37;66.45;96375.27;1714522;81;21139;-55
2021/04/14 06:38:09;;;;;;;1.70;1.60;;;;;;;5.40;66.40;96378.16;1737017;81;21151;-54
2021/04/14 06:43:42;;;;;;;1.93;1.83;;;;;;;5.47;66.49;96381.59;1908604;74;26135;-54
2021/04/14 06:46:31;;;;;;;2.22;2.05;;;;;;;5.43;66.36;96381.39;1849835;77;21035;-53
2021/04/14 06:49:22;;;;;;;1.50;1.40;;;;;;;5.47;66.42;96379.48;1849849;77;21417;-53
2021/04/14 06:52:14;;;;;;;1.70;1.50;;;;;;;5.50;65.90;96380.60;1848684;77;21086;-53
2021/04/14 06:55:08;;;;;;;1.82;1.50;;;;;;;5.43;65.72;96374.13;1849819;77;21456;-53
2021/04/14 06:57:38;;;;;;;1.57;1.45;;;;;;;5.40;65.66;96373.83;1825177;77;21601;-53
2021/04/14 07:00:24;;;;;;;1.90;1.47;;;;;;;5.38;65.84;96375.66;1816584;79;21023;-53
2021/04/14 07:02:57;;;;;;;1.90;1.67;;;;;;;5.35;65.68;96377.11;1813319;78;21383;-52
2021/04/14 07:05:31;;;;;;;1.30;1.20;;;;;;;5.31;66.07;96375.59;1816520;78;21562;-54
2021/04/14 07:08:01;;;;;;;1.52;1.22;;;;;;;5.33;65.99;96378.94;1814704;77;21033;-53
2021/04/14 07:10:31;;;;;;;1.07;0.98;;;;;;;5.30;66.02;96373.95;1849949;77;21059;-53
2021/04/14 07:13:06;;;;;;;1.37;1.02;;;;;;;5.29;65.91;96376.95;1849555;77;21058;-54
2021/04/14 07:15:34;;;;;;;0.80;0.80;;;;;;;5.20;66.30;96381.75;1849906;77;21232;-54
2021/04/14 07:18:28;;;;;;;1.05;0.95;;;;;;;5.16;66.29;96380.66;1822061;77;21527;-55
2021/04/14 07:21:09;;;;;;;0.95;0.75;;;;;;;5.18;66.24;96379.72;1829550;77;21090;-53
2021/04/14 07:24:00;;;;;;;1.10;0.80;;;;;;;5.15;66.04;96385.88;1849912;77;21106;-54
2021/04/14 07:26:56;;;;;;;1.02;0.90;;;;;;;5.08;66.07;96390.94;1775552;80;21071;-55
2021/04/14 07:29:40;;;;;;;2.05;0.85;;;;;;;5.00;66.19;96393.08;1833930;77;21614;-53
2021/04/14 07:32:20;;;;;;;1.30;1.10;;;;;;;4.94;66.51;96398.09;1818012;77;21122;-54
2021/04/14 07:35:11;;;;;;;0.70;0.70;;;;;;;4.93;66.54;96396.42;1816452;78;21154;-53
2021/04/14 07:38:04;;;;;;;1.07;0.90;;;;;;;4.92;66.70;96405.06;1747941;81;21069;-54
2021/04/14 07:41:00;;;;;;;1.55;1.10;;;;;;;4.92;66.68;96408.45;1824854;77;21170;-53
2021/04/14 07:44:01;;;;;;;1.67;1.20;;;;;;;4.90;66.61;96412.85;1852615;77;21118;-53
2021/04/14 07:46:30;;;;;;;1.70;1.20;;;;;;;4.89;66.71;96412.92;1853035;77;21046;-53
2021/04/14 07:48:59;;;;;;;1.80;1.40;;;;;;;4.89;66.63;96409.07;1853325;77;20987;-53
2021/04/14 07:51:28;;;;;;;1.10;1.00;;;;;;;4.85;66.67;96414.83;1805081;78;21142;-53
2021/04/14 07:54:07;;;;;;;0.82;0.82;;;;;;;4.83;66.70;96417.91;1819298;78;21486;-53
2021/04/14 07:56:46;;;;;;;1.30;1.10;;;;;;;4.83;66.58;96416.63;1819251;77;22771;-53
2021/04/14 07:59:31;;;;;;;0.88;0.70;;;;;;;4.81;66.50;96417.63;1819015;78;21126;-52
2021/04/14 08:02:09;;;;;;;1.27;0.85;;;;;;;4.77;66.75;96415.20;1845440;77;21055;-53
2021/04/14 08:04:46;;;;;;;0.90;0.60;;;;;;;4.85;66.60;96412.69;1852752;77;21133;-53
2021/04/14 08:07:23;;;;;;;1.02;0.90;;;;;;;4.84;66.61;96417.02;1852602;77;21468;-53
2021/04/14 08:10:01;;;;;;;0.88;0.60;;;;;;;4.84;66.59;96413.16;1852572;77;21246;-53
2021/04/14 08:12:34;;;;;;;0.95;0.80;;;;;;;4.88;66.68;96413.36;1819582;77;21626;-52
2021/04/14 08:15:33;;;;;;;1.07;0.70;;;;;;;4.95;66.52;96415.16;1819143;78;21050;-52
2021/04/14 08:18:30;;;;;;;1.10;0.93;;;;;;;5.05;66.33;96414.24;1821999;77;21015;-53
2021/04/14 08:21:10;;;;;;;0.82;0.80;;;;;;;5.04;66.02;96406.99;1852167;77;21082;-52
2021/04/14 08:23:39;;;;;;;1.07;0.90;;;;;;;4.96;65.85;96407.38;1852134;77;21205;-52
2021/04/14 08:26:17;;;;;;;0.62;0.62;;;;;;;4.90;66.09;96404.28;1851627;77;21194;-52
2021/04/14 08:28:46;;;;;;;1.27;1.10;;;;;;;4.91;66.26;96406.78;1852213;77;21145;-53
2021/04/14 08:31:20;;;;;;;0.82;0.80;;;;;;;4.98;66.19;96403.01;1824272;77;21653;-53
2021/04/14 08:33:51;;;;;;;0.68;0.65;;;;;;;5.07;65.96;96395.27;1852599;77;21559;-53
2021/04/14 08:36:25;;;;;;;2.05;0.70;;;;;;;5.11;65.81;96395.94;1846060;77;22260;-53
2021/04/14 08:38:54;;;;;;;1.72;0.82;;;;;;;5.10;65.56;96386.11;1819094;77;21181;-52
2021/04/14 08:41:30;;;;;;;1.98;0.68;;;;;;;5.00;65.73;96381.08;1825811;77;21047;-53
2021/04/14 08:44:13;;;;;;;0.80;0.80;;;;;;;4.97;65.95;96374.34;1821708;76;21034;-53
2021/04/14 08:46:42;;;;;;;2.90;0.70;;;;;;;4.97;65.91;96365.34;1811179;78;21508;-52
2021/04/14 08:49:21;;;;;;;1.12;0.82;;;;;;;4.89;65.69;96361.51;1789413;79;21308;-52
2021/04/14 08:51:51;;;;;;;0.70;0.70;;;;;;;4.70;66.27;96353.89;1789207;79;21091;-53
2021/04/14 08:54:24;;;;;;;1.15;0.60;;;;;;;4.56;66.78;96361.84;1789336;79;21047;-52
2021/04/14 08:56:52;;;;;;;0.57;0.53;;;;;;;4.41;67.02;96362.62;1803068;77;21512;-53
2021/04/14 08:59:22;;;;;;;0.42;0.37;;;;;;;4.15;67.74;96367.75;1776232;79;21067;-54
2021/04/14 09:01:51;;;;;;;0.72;0.40;;;;;;;3.95;68.43;96363.58;1789397;80;21925;-54
2021/04/14 09:04:19;;;;;;;1.37;0.47;;;;;;;3.91;68.69;96369.29;1775924;78;21305;-55
2021/04/14 09:06:48;;;;;;;0.70;0.70;;;;;;;3.95;68.90;96365.69;1789480;80;21212;-54
2021/04/14 09:09:19;;;;;;;;;;;;;;;4.03;68.88;96374.31;1791913;80;21142;-52
2021/04/14 09:12:03;;;;;;;0.42;0.42;;;;;;;4.11;68.84;96363.66;1801804;78;20254;-52
2021/04/14 09:14:33;;;;;;;0.55;0.55;;;;;;;4.18;68.46;96367.14;1817808;78;21468;-53
2021/04/14 09:17:05;;;;;;;;;;;;;;;4.29;68.58;96372.20;1816513;77;21519;-54
2021/04/14 09:19:37;;;;;;;0.60;0.60;;;;;;;4.43;68.53;96367.23;1821779;78;20214;-53
2021/04/14 09:22:23;;;;;;;1.27;1.00;;;;;;;4.57;68.25;96366.09;1821551;78;21107;-53
2021/04/14 09:25:04;;;;;;;0.65;0.65;;;;;;;4.75;68.07;96370.76;1821379;78;21476;-53
2021/04/14 09:27:43;;;;;;;0.80;0.72;;;;;;;4.90;67.23;96383.72;1777436;79;22269;-52
2021/04/14 09:30:31;;;;;;;1.17;0.80;;;;;;;4.94;67.41;96387.34;1789235;80;21078;-53
2021/04/14 09:33:14;;;;;;;1.10;0.87;;;;;;;5.05;67.30;96380.37;1789929;78;21058;-53
2021/04/14 09:35:52;;;;;;;1.57;0.95;;;;;;;5.15;66.66;96385.88;1789201;79;21287;-52
2021/04/14 09:38:32;;;;;;;1.17;0.72;;;;;;;5.18;66.46;96393.87;1789410;79;21059;-53
2021/04/14 09:41:25;;;;;;;0.90;0.60;;;;;;;5.20;66.24;96396.75;1789581;78;22440;-52
2021/04/14 09:43:57;;;;;;;0.50;0.47;;;;;;;5.21;65.81;96406.11;1810967;78;21077;-53
2021/04/14 09:46:41;;;;;;;1.27;0.62;;;;;;;5.20;66.05;96412.63;1813512;79;21065;-53
2021/04/14 09:49:15;;;;;;;1.62;0.95;;;;;;;5.20;66.00;96408.33;1815153;77;21054;-53
2021/04/14 09:51:56;;;;;;;1.12;1.02;;;;;;;5.27;66.11;96411.41;1816142;78;21033;-53
2021/04/14 09:54:33;;;;;;;1.50;1.10;;;;;;;5.39;65.75;96415.08;1909958;74;26446;-54
2021/04/14 09:57:03;;;;;;;1.25;0.80;;;;;;;5.35;65.44;96415.23;1849303;77;21487;-54
2021/04/14 09:59:39;;;;;;;0.88;0.80;;;;;;;5.35;65.25;96411.37;1847417;77;21293;-54
2021/04/14 10:02:20;;;;;;;0.60;0.60;;;;;;;5.34;65.20;96403.30;1849854;77;21098;-54
2021/04/14 10:04:49;;;;;;;0.78;0.70;;;;;;;5.40;64.85;96403.42;1849940;77;21472;-53
2021/04/14 10:07:29;;;;;;;1.50;1.20;;;;;;;5.42;64.64;96402.87;1818875;77;21143;-53
2021/04/14 10:10:22;;;;;;;0.80;0.80;;;;;;;5.41;64.55;96400.38;1847340;77;21224;-54
2021/04/14 10:12:52;;;;;;;1.20;1.10;;;;;;;5.35;64.42;96398.51;1849567;77;21262;-53
2021/04/14 10:15:35;;;;;;;0.80;0.70;;;;;;;5.34;64.59;96412.73;1834475;77;20928;-53
2021/04/14 10:18:05;;;;;;;1.82;1.02;;;;;;;5.35;64.58;96412.66;1847281;77;21019;-53
2021/04/14 10:20:37;;;;;;;1.10;0.90;;;;;;;5.37;64.81;96407.90;1787614;79;21135;-53
2021/04/14 10:23:13;;;;;;;0.80;0.72;;;;;;;5.45;64.91;96413.47;1816545;78;21122;-53
2021/04/14 10:25:51;;;;;;;0.60;0.60;;;;;;;5.51;64.73;96412.69;1674457;82;21329;-54
2021/04/14 10:28:21;;;;;;;1.20;1.10;;;;;;;5.50;64.30;96411.48;1673846;83;21113;-54
2021/04/14 10:31:04;;;;;;;0.80;0.80;;;;;;;5.46;64.54;96415.97;1707769;84;21078;-53
2021/04/14 10:33:32;;;;;;;1.32;1.10;;;;;;;5.48;64.86;96409.45;1675268;84;21508;-55
2021/04/14 10:36:11;;;;;;;1.40;1.25;;;;;;;5.51;64.29;96411.41;1707856;82;21070;-54
2021/04/14 10:38:46;;;;;;;1.62;1.50;;;;;;;5.52;64.47;96414.33;1829324;76;27659;-53
2021/04/14 10:41:24;;;;;;;1.00;0.90;;;;;;;5.55;64.39;96421.08;1814820;79;20981;-53
2021/04/14 10:43:51;;;;;;;1.70;1.17;;;;;;;5.60;64.12;96413.11;1815406;79;21362;-53
2021/04/14 10:46:32;;;;;;;3.08;0.98;;;;;;;5.63;63.91;96416.81;1815313;78;20981;-53
2021/04/14 10:49:06;;;;;;;1.67;0.90;;;;;;;5.62;64.26;96421.11;1815413;77;20993;-54
2021/04/14 10:51:52;;;;;;;1.07;0.78;;;;;;;5.63;64.15;96416.34;1806996;78;21479;-53
2021/04/14 10:54:23;;;;;;;1.30;1.20;;;;;;;5.68;63.92;96425.12;1783316;79;21135;-52
2021/04/14 10:57:01;;;;;;;1.20;1.10;;;;;;;5.65;63.92;96427.38;1796405;79;21182;-52
2021/04/14 10:59:29;;;;;;;0.90;0.90;;;;;;;5.71;63.99;96430.92;1783720;79;21154;-54
2021/04/14 11:01:57;;;;;;;1.00;1.00;;;;;;;5.71;63.86;96429.64;1753748;80;21088;-54
2021/04/14 11:04:39;;;;;;;1.30;1.20;;;;;;;5.68;64.25;96429.80;1783446;79;21504;-54
2021/04/14 11:07:12;;;;;;;1.70;1.60;;;;;;;5.66;63.93;96423.91;1752527;80;21075;-53
2021/04/14 11:09:43;;;;;;;3.62;1.70;;;;;;;5.58;63.73;96429.92;1786212;79;22331;-53
2021/04/14 11:12:18;;;;;;;0.90;0.90;;;;;;;5.59;63.78;96429.45;1766713;79;21068;-53
2021/04/14 11:14:51;;;;;;;2.08;0.82;;;;;;;5.56;63.77;96428.33;1814336;78;21465;-53
2021/04/14 11:17:23;;;;;;;1.00;0.90;;;;;;;5.58;63.69;96436.36;1815336;77;21547;-52
2021/04/14 11:20:00;;;;;;;1.52;1.42;;;;;;;5.52;64.13;96437.96;1784510;78;21544;-53
2021/04/14 11:22:32;;;;;;;2.50;1.65;;;;;;;5.46;64.22;96431.41;1676940;84;21272;-52
2021/04/14 11:25:00;;;;;;;1.35;1.20;;;;;;;5.52;64.09;96440.53;1704413;82;21192;-52
2021/04/14 11:27:30;;;;;;;1.02;1.02;;;;;;;5.60;63.77;96435.81;1739162;82;21100;-54
2021/04/14 11:30:15;;;;;;;1.17;0.90;;;;;;;5.69;63.44;96435.34;1706516;82;21231;-52
2021/04/14 11:32:59;;;;;;;1.00;1.00;;;;;;;5.76;62.91;96437.12;1706482;82;21080;-52
2021/04/14 11:35:51;;;;;;;1.70;1.35;;;;;;;5.76;62.54;96441.45;1716158;83;21626;-52
2021/04/14 11:38:42;;;;;;;1.62;1.50;;;;;;;5.68;62.53;96438.81;1743095;81;21107;-52
2021/04/14 11:41:31;;;;;;;1.15;0.93;;;;;;;5.70;62.51;96436.16;1740293;82;21224;-52
2021/04/14 11:44:01;;;;;;;0.75;0.75;;;;;;;5.64;62.36;96430.04;1726968;83;21142;-53
2021/04/14 11:46:38;;;;;;;1.00;0.80;;;;;;;5.55;62.75;96435.70;1714941;82;21135;-53
2021/04/14 11:49:12;;;;;;;0.90;0.90;;;;;;;5.47;63.25;96441.23;1702804;83;21080;-53
2021/04/14 11:51:42;;;;;;;1.22;1.12;;;;;;;5.49;63.50;96444.55;1701079;83;21586;-54
2021/04/14 11:54:23;;;;;;;0.88;0.88;;;;;;;5.57;63.63;96437.26;1743983;82;21143;-52
2021/04/14 11:57:08;;;;;;;0.72;0.72;;;;;;;5.63;63.61;96440.80;1707130;82;21215;-53
2021/04/14 11:59:42;;;;;;;1.87;1.15;;;;;;;5.69;63.13;96443.05;1700647;83;21648;-53
2021/04/14 12:02:16;;;;;;;2.72;1.90;;;;;;;5.64;63.40;96444.20;1743002;81;21373;-53
2021/04/14 12:04:45;;;;;;;1.60;1.50;;;;;;;5.63;63.70;96448.52;1743918;82;21084;-52
2021/04/14 12:07:15;;;;;;;1.12;1.02;;;;;;;5.68;63.70;96436.70;1673573;81;21106;-53
2021/04/14 12:09:43;;;;;;;1.00;0.90;;;;;;;5.73;63.57;96434.70;1756455;81;21066;-54
2021/04/14 12:12:33;;;;;;;1.05;0.95;;;;;;;5.70;62.66;96433.58;1742865;81;21111;-54
2021/04/14 12:15:06;;;;;;;1.87;1.42;;;;;;;5.62;62.31;96439.59;1657324;86;21166;-54
2021/04/14 12:17:36;;;;;;;3.45;2.62;;;;;;;5.60;62.17;96438.85;1628343;88;21162;-53